This is the latest recevied weather packets stored in our database for station/object TG9SRP-22. If no packets are shown the sender has not sent any weather packets the latest 1 day(s).
| Time | Temp. | Humidity | Pressure | Rain* | Wind** | Luminosity | Snow |
|---|---|---|---|---|---|---|---|
| 1777987057 | 18.33° C | 77% | 1016 hPa | 0 mm | 4.92 m/s, 10° | - | - |
| 1777986457 | 15.56° C | 89% | 1016 hPa | 0 mm | 2.24 m/s, 340° | - | - |
| 1777985856 | 16.67° C | 88% | 1016 hPa | 0 mm | 2.68 m/s, 340° | - | - |
| 1777985255 | 17.22° C | 88% | 1016 hPa | 0 mm | 2.68 m/s, 340° | - | - |
| 1777984655 | 14.44° C | 93% | 1016 hPa | 0 mm | 2.24 m/s, 340° | - | - |
| 1777984054 | 15° C | 93% | 1016 hPa | 0 mm | 2.68 m/s, 340° | - | - |
| 1777983454 | 12.22° C | 97% | 1016 hPa | 0 mm | 1.79 m/s, 60° | - | - |
| 1777982853 | 13.33° C | 96% | 1016 hPa | 0 mm | 1.79 m/s, 60° | - | - |
| 1777982252 | 13.89° C | 96% | 1016 hPa | 0 mm | 1.79 m/s, 60° | - | - |
| 1777981652 | 14.44° C | 96% | 1016 hPa | 0 mm | 1.79 m/s, 60° | - | - |
| 1777981051 | 12.22° C | 97% | 1016 hPa | 0 mm | 1.79 m/s, 60° | - | - |
| 1777980451 | 13.33° C | 97% | 1015 hPa | 0 mm | 1.79 m/s, 60° | - | - |
| 1777979850 | 13.33° C | 97% | 1015 hPa | 0 mm | 1.79 m/s, 60° | - | - |
| 1777979250 | 14.44° C | 96% | 1015 hPa | 0 mm | 1.79 m/s, 60° | - | - |
| 1777978649 | 12.22° C | 96% | 1015 hPa | 0 mm | 0.45 m/s, 315° | - | - |
| 1777978048 | 13.33° C | 95% | 1015 hPa | 0 mm | 0.45 m/s, 315° | - | - |
| 1777977448 | 14.44° C | 94% | 1015 hPa | 0 mm | 0.45 m/s, 315° | - | - |
| 1777976847 | 15° C | 94% | 1015 hPa | 0 mm | 0 m/s | - | - |
| 1777976247 | 12.22° C | 10% | - | 0 mm | 0.45 m/s, 322° | - | - |
| 1777975646 | 13.33° C | 10% | - | 0 mm | 0.89 m/s, 322° | - | - |
| 1777975045 | 13.33° C | 10% | - | 0 mm | 0.89 m/s, 322° | - | - |
| 1777974445 | 12.78° C | 96% | 1015 hPa | 0 mm | 0.89 m/s, 322° | - | - |
| 1777973844 | 12.78° C | 93% | 1014 hPa | 0 mm | 3.58 m/s, 20° | - | - |
| 1777973244 | 13.89° C | 92% | 1013 hPa | 0 mm | 3.58 m/s, 20° | - | - |
| 1777972643 | 13.89° C | 92% | 1013 hPa | 0 mm | 3.58 m/s, 20° | - | - |
* Rain latest hour (hover to see other rain measurements)
** Current wind speed in m/s (hover to see current wind gust speed)